createdAt,value
2023-03-10T05:52:28.112Z,12.21
2023-03-10T05:57:27.937Z,12.41
2023-03-10T06:02:27.925Z,12.74
2023-03-10T06:07:27.797Z,12.69
2023-03-10T06:12:27.802Z,12.15
2023-03-10T06:17:27.735Z,12.20
2023-03-10T06:22:30.712Z,12.27
2023-03-10T06:27:27.554Z,11.86
2023-03-10T06:32:27.763Z,12.12
2023-03-10T06:37:27.405Z,12.37
2023-03-10T06:42:30.453Z,12.37
2023-03-10T06:47:27.359Z,12.21
2023-03-10T06:52:27.313Z,12.77
2023-03-10T06:57:27.130Z,12.71
2023-03-10T07:02:27.301Z,13.27
2023-03-10T07:07:27.005Z,12.89
2023-03-10T07:12:26.993Z,13.12
2023-03-10T07:17:26.882Z,13.73
2023-03-10T07:22:26.948Z,14.02
2023-03-10T07:27:26.766Z,14.64
2023-03-10T07:32:26.836Z,14.98
2023-03-10T07:37:26.724Z,14.81
2023-03-10T07:42:29.870Z,14.90
2023-03-10T07:47:26.555Z,14.56
2023-03-10T07:52:26.549Z,15.12
2023-03-10T07:57:26.368Z,15.28
2023-03-10T08:02:26.397Z,15.03
2023-03-10T08:07:26.226Z,14.74
2023-03-10T08:12:26.174Z,14.43
2023-03-10T08:17:26.061Z,14.68
2023-03-10T08:22:26.176Z,14.57
2023-03-10T08:27:28.495Z,14.49
2023-03-10T08:32:25.941Z,15.09
2023-03-10T08:37:25.847Z,15.86
2023-03-10T08:42:28.823Z,15.60
2023-03-10T08:47:28.589Z,15.33
2023-03-10T08:52:25.641Z,16.04
2023-03-10T08:57:25.541Z,15.84
2023-03-10T09:02:25.687Z,16.12
2023-03-10T09:07:25.464Z,16.30
2023-03-10T09:12:29.534Z,16.41
2023-03-10T09:17:26.312Z,15.81
2023-03-10T09:22:25.222Z,15.76
2023-03-10T09:27:25.234Z,15.66
2023-03-10T09:32:25.184Z,15.78
2023-03-10T09:37:25.110Z,15.99
2023-03-10T09:42:37.504Z,16.15
2023-03-10T09:47:25.898Z,15.51
2023-03-10T09:52:25.016Z,15.68
2023-03-10T09:57:24.764Z,15.92
2023-03-10T10:02:24.934Z,15.57
2023-03-10T10:07:24.624Z,16.12
2023-03-10T10:12:24.598Z,15.92
2023-03-10T10:17:24.614Z,16.73
2023-03-10T10:22:24.486Z,16.85
2023-03-10T10:27:25.605Z,16.68
2023-03-10T10:32:24.406Z,16.75
2023-03-10T10:37:24.236Z,16.92
2023-03-10T10:42:27.319Z,16.89
2023-03-10T10:47:24.125Z,16.89
2023-03-10T10:52:24.180Z,17.04
2023-03-10T10:57:23.948Z,16.92
2023-03-10T11:02:24.217Z,17.51
2023-03-10T11:07:23.831Z,16.68
2023-03-10T11:12:23.898Z,17.13
2023-03-10T11:17:23.684Z,16.86
2023-03-10T11:22:24.117Z,16.70
2023-03-10T11:27:23.549Z,16.49
2023-03-10T11:32:23.569Z,16.55
2023-03-10T11:37:23.457Z,16.60
2023-03-10T11:42:26.382Z,16.07
2023-03-10T11:47:23.283Z,15.43
2023-03-10T11:52:23.299Z,15.94
2023-03-10T11:57:23.153Z,16.26
2023-03-10T12:02:23.219Z,15.74
2023-03-10T12:07:23.125Z,15.79
2023-03-10T12:12:25.075Z,16.25
2023-03-10T12:17:22.945Z,16.03
2023-03-10T12:22:22.926Z,15.28
2023-03-10T12:27:22.841Z,14.88
2023-03-10T12:32:22.897Z,14.90
2023-03-10T12:37:22.631Z,15.01
2023-03-10T12:42:33.437Z,15.15
2023-03-10T12:47:29.979Z,14.88
2023-03-10T12:52:22.527Z,14.62
2023-03-10T12:57:22.354Z,14.25
2023-03-10T13:02:22.346Z,14.13
2023-03-10T13:07:22.223Z,14.50
2023-03-10T13:12:22.218Z,14.64
2023-03-10T13:17:22.282Z,15.26
2023-03-10T13:22:31.005Z,15.41
2023-03-10T13:27:24.020Z,15.51
2023-03-10T13:32:22.006Z,15.70
2023-03-10T13:37:21.803Z,16.56
2023-03-10T13:42:37.024Z,16.98
2023-03-10T13:47:22.812Z,16.90
2023-03-10T13:52:21.698Z,17.62
2023-03-10T13:57:21.723Z,17.74
2023-03-10T14:02:21.719Z,18.25
2023-03-10T14:07:21.524Z,17.59
2023-03-10T14:12:21.526Z,17.82
2023-03-10T14:17:21.485Z,17.55
2023-03-10T14:22:21.263Z,17.78
2023-03-10T14:27:21.146Z,18.39
2023-03-10T14:32:21.938Z,17.88
2023-03-10T14:37:21.128Z,17.63
2023-03-10T14:42:24.040Z,17.40
2023-03-10T14:47:21.036Z,17.53
2023-03-10T14:52:20.893Z,17.82
2023-03-10T14:57:20.745Z,16.70
2023-03-10T15:02:20.896Z,16.40
2023-03-10T15:07:20.608Z,16.37
2023-03-10T15:12:20.593Z,15.96
2023-03-10T15:17:20.517Z,15.99
2023-03-10T15:22:20.467Z,16.31
2023-03-10T15:27:20.458Z,16.09
2023-03-10T15:32:27.879Z,16.18
2023-03-10T15:37:20.273Z,15.61
2023-03-10T15:42:23.184Z,15.75
2023-03-10T15:47:20.106Z,15.17
2023-03-10T15:52:20.091Z,15.28
2023-03-10T15:57:20.027Z,14.84
2023-03-10T16:02:20.267Z,14.90
2023-03-10T16:07:19.808Z,14.49
2023-03-10T16:12:20.030Z,14.29
2023-03-10T16:17:27.294Z,14.38
2023-03-10T16:22:19.628Z,13.89
2023-03-10T16:27:19.582Z,13.87
2023-03-10T16:32:19.527Z,13.67
2023-03-10T16:37:19.471Z,13.38
2023-03-10T16:42:22.377Z,13.43
2023-03-10T16:47:19.379Z,13.55
2023-03-10T16:52:19.261Z,13.89
2023-03-10T16:57:19.129Z,13.91
2023-03-10T17:02:19.274Z,13.49
2023-03-10T17:07:19.113Z,13.43
2023-03-10T17:12:19.100Z,13.30
2023-03-10T17:17:18.845Z,13.17
2023-03-10T17:22:18.809Z,13.14
2023-03-10T17:27:26.248Z,13.02
2023-03-10T17:32:25.637Z,13.21
2023-03-10T17:37:18.695Z,13.03
2023-03-10T17:42:21.632Z,12.37
2023-03-10T17:47:18.476Z,11.94
2023-03-10T17:52:18.698Z,11.96
2023-03-10T17:57:19.428Z,11.71
2023-03-10T18:02:18.730Z,11.70
2023-03-10T18:07:22.563Z,11.61
2023-03-10T18:12:18.209Z,11.82
2023-03-10T18:17:18.102Z,11.25
2023-03-10T18:22:19.271Z,11.70
2023-03-10T18:27:17.988Z,11.52
2023-03-10T18:32:17.992Z,11.38
2023-03-10T18:37:17.834Z,11.54
2023-03-10T18:42:20.863Z,11.50
2023-03-10T18:47:17.712Z,10.91
2023-03-10T18:52:17.737Z,11.06
2023-03-10T18:57:17.564Z,11.19
2023-03-10T19:02:18.063Z,11.10
2023-03-10T19:07:25.314Z,11.36
2023-03-10T19:12:17.391Z,10.88
2023-03-10T19:17:17.343Z,10.70
2023-03-10T19:22:17.342Z,10.32
2023-03-10T19:27:17.262Z,10.30
2023-03-10T19:32:17.199Z,10.56
2023-03-10T19:37:17.092Z,10.40
2023-03-10T19:42:20.144Z,10.24
2023-03-10T19:47:16.934Z,10.15
2023-03-10T19:52:16.963Z,10.21
2023-03-10T19:57:16.835Z,10.01
2023-03-10T20:07:46.900Z,9.91
2023-03-10T20:12:47.091Z,9.82
2023-03-10T20:17:46.820Z,9.85
2023-03-10T20:22:46.549Z,9.76
2023-03-10T20:27:47.259Z,9.43
2023-03-10T20:32:46.618Z,9.27
2023-03-10T20:37:46.554Z,9.61
2023-03-10T20:45:16.827Z,9.43
2023-03-10T20:50:16.619Z,9.25
2023-03-10T20:55:16.811Z,9.27
2023-03-10T21:00:16.606Z,9.01
2023-03-10T21:05:16.474Z,8.93
2023-03-10T21:10:16.472Z,9.12
2023-03-10T21:15:16.456Z,9.12
2023-03-10T21:20:16.539Z,8.76
2023-03-10T21:25:16.742Z,8.78
2023-03-10T21:30:16.271Z,8.51
2023-03-10T21:35:19.162Z,8.32
2023-03-10T21:40:16.006Z,7.96
2023-03-10T21:50:47.948Z,6.80
2023-03-10T21:55:47.788Z,6.21
2023-03-10T22:00:56.372Z,5.75
2023-03-10T22:05:47.627Z,5.66
2023-03-10T22:10:47.891Z,5.16
2023-03-10T22:15:47.787Z,4.95
2023-03-10T22:53:49.675Z,4.43
2023-03-10T22:58:49.556Z,4.55
2023-03-10T23:03:49.711Z,4.12
2023-03-10T23:08:49.393Z,4.19
2023-03-10T23:13:49.417Z,4.24
2023-03-10T23:18:49.355Z,4.42
2023-03-10T23:23:49.251Z,4.58
2023-03-10T23:28:49.351Z,4.34
2023-03-10T23:33:49.108Z,4.46
2023-03-10T23:38:48.946Z,4.43
2023-03-10T23:43:52.298Z,4.19
